Choctaw, Mississippi
Current Conditions -  °F | °C
As of 11:56 PM on Tuesday 27 Jan 2015 (Local Time) from KNMM Reporting Station
Clear Clear  
Wind Chill:   Ceiling: Unl
Heat Index:   Visibility: 10mi
Dew Point:   Wind: 5mph
Humidity: 76%   Direction: 330°NNW
Pressure: 30.21"   Gusts: NA
Location:  32.751°N, 89.1208°W
Report Text: KNMM 280556Z AUTO 33004KT 10SM CLR 05/01 A3021 RMK AO2 SLP242 T00500011 10128 20044 401890028 51017 $
Loading
Personal Weather Stations






























Interactive Weather Map New forecast layout! Learn more

10-Day Weather Forecast

Advertisements
Track Severe Weather on mobile